AAR546 LKPR-RKSI
Flight info
| Callsign | AAR546 |
|---|---|
| Flight time | N/A |
| Altitude | 23000 |
| Route | VOZ DCT BODAL DCT BNO DCT PEPIK/N0481F370 DCT BUDOP DCT DINRO/N0484F390 N743 UDROS UM859 KARDE UN644 ROLIN DCT TAGAR DCT BT DCT BARAD M747 LUSAL N199 RASAM L88 METKA B476 TIMGA A480 OTBOR/K0898F390 N147 ELAHA Z621 ARBOL M610 RULAD/K0893S1190 A343 POSOT B215 FKG W188 LIKMI W270 DKO W69 HUR B339 LADIX/K0926S1010 W34 VAPGU W100 MUDOT/K0948S0890 W100 ORAVA W201 UNSEK A326 DONVO G597 AGAVO/N0499F270 Y644 REBIT REBIT1Y |
| Aircraft | A359/H-SDE2E3GHIJ3J4J5LM1ORWXY/LB1D1 |
Departure
| Time | N/A |
|---|---|
| Airport | Václav Havel Airport Prague (LKPR) |
Arrival
| Time | 2026-05-07 05:51 |
|---|---|
| Airport | Incheon International Airport (RKSI) |
| Time | Latitude | Longitude | Altitude | Speed | Heading |
|---|---|---|---|---|---|
| 2026-05-07 05:00 | 38.55318 | 120.27056 | 37078 ft | 550 kts | 148° |
| 2026-05-07 05:00 | 38.52556 | 120.30512 | 37076 ft | 563 kts | 133° |
| 2026-05-07 05:00 | 38.50446 | 120.34749 | 37078 ft | 571 kts | 117° |
| 2026-05-07 05:00 | 38.49132 | 120.39465 | 37065 ft | 573 kts | 102° |
| 2026-05-07 05:01 | 38.48669 | 120.44570 | 37076 ft | 570 kts | 87° |
| 2026-05-07 05:01 | 38.49097 | 120.49489 | 37075 ft | 562 kts | 72° |
| 2026-05-07 05:01 | 38.50377 | 120.54132 | 37075 ft | 549 kts | 57° |
| 2026-05-07 05:01 | 38.52410 | 120.58161 | 37086 ft | 532 kts | 41° |
| 2026-05-07 05:02 | 38.55048 | 120.61347 | 37068 ft | 512 kts | 26° |
| 2026-05-07 05:02 | 38.58084 | 120.63502 | 37072 ft | 490 kts | 11° |
| 2026-05-07 05:02 | 38.61306 | 120.64537 | 37073 ft | 467 kts | 355° |
| 2026-05-07 05:02 | 38.64468 | 120.64423 | 37076 ft | 446 kts | 340° |
| 2026-05-07 05:03 | 38.67336 | 120.63220 | 37069 ft | 426 kts | 324° |
| 2026-05-07 05:03 | 38.69706 | 120.61068 | 37073 ft | 412 kts | 310° |
| 2026-05-07 05:03 | 38.73420 | 120.55556 | 37073 ft | 409 kts | 303° |
| 2026-05-07 05:04 | 38.76540 | 120.49511 | 37072 ft | 404 kts | 294° |
| 2026-05-07 05:04 | 38.78253 | 120.42733 | 37082 ft | 401 kts | 277° |
| 2026-05-07 05:05 | 38.78502 | 120.35590 | 37073 ft | 402 kts | 269° |
| 2026-05-07 05:05 | 38.77537 | 120.28499 | 37079 ft | 409 kts | 257° |
| 2026-05-07 05:06 | 38.74984 | 120.21906 | 37077 ft | 421 kts | 242° |
| 2026-05-07 05:06 | 38.70873 | 120.16381 | 37083 ft | 440 kts | 226° |
| 2026-05-07 05:07 | 38.68290 | 120.14202 | 37076 ft | 451 kts | 218° |
| 2026-05-07 05:07 | 38.65399 | 120.12518 | 37074 ft | 463 kts | 210° |
| 2026-05-07 05:07 | 38.62244 | 120.11407 | 37078 ft | 477 kts | 201° |
| 2026-05-07 05:07 | 38.58896 | 120.10955 | 37090 ft | 493 kts | 191° |
| 2026-05-07 05:08 | 38.55425 | 120.11237 | 37082 ft | 508 kts | 181° |
| 2026-05-07 05:08 | 38.51942 | 120.12340 | 37075 ft | 526 kts | 168° |
| 2026-05-07 05:08 | 38.48632 | 120.14498 | 37081 ft | 544 kts | 153° |
| 2026-05-07 05:08 | 38.45723 | 120.17677 | 37085 ft | 559 kts | 138° |
| 2026-05-07 05:09 | 38.43407 | 120.21711 | 37081 ft | 570 kts | 122° |
| 2026-05-07 05:09 | 38.41838 | 120.26371 | 37083 ft | 575 kts | 107° |
| 2026-05-07 05:09 | 38.41120 | 120.31378 | 37078 ft | 575 kts | 92° |
| 2026-05-07 05:09 | 38.41294 | 120.36442 | 37084 ft | 570 kts | 77° |
| 2026-05-07 05:10 | 38.42341 | 120.41258 | 37075 ft | 559 kts | 62° |
| 2026-05-07 05:10 | 38.44166 | 120.45556 | 37082 ft | 547 kts | 48° |
| 2026-05-07 05:10 | 38.46084 | 120.49781 | 37079 ft | 559 kts | 61° |
| 2026-05-07 05:10 | 38.47241 | 120.54555 | 37080 ft | 569 kts | 76° |
| 2026-05-07 05:11 | 38.47574 | 120.64693 | 37062 ft | 575 kts | 91° |
| 2026-05-07 05:11 | 38.47086 | 120.74890 | 37071 ft | 576 kts | 92° |
| 2026-05-07 05:12 | 38.46725 | 120.85097 | 37060 ft | 575 kts | 90° |
| 2026-05-07 05:12 | 38.46569 | 120.94175 | 37066 ft | 575 kts | 89° |
| 2026-05-07 05:13 | 38.46465 | 121.03811 | 37046 ft | 575 kts | 89° |
| 2026-05-07 05:13 | 38.46241 | 121.13998 | 37046 ft | 576 kts | 95° |
| 2026-05-07 05:14 | 38.44897 | 121.24064 | 37028 ft | 576 kts | 101° |
| 2026-05-07 05:14 | 38.43283 | 121.34062 | 37029 ft | 576 kts | 102° |
| 2026-05-07 05:15 | 38.41634 | 121.43981 | 37021 ft | 575 kts | 102° |
| 2026-05-07 05:15 | 38.39980 | 121.53949 | 37026 ft | 575 kts | 102° |
| 2026-05-07 05:16 | 38.38310 | 121.63913 | 37012 ft | 575 kts | 102° |
| 2026-05-07 05:16 | 38.36625 | 121.73927 | 37019 ft | 574 kts | 102° |
| 2026-05-07 05:17 | 38.34958 | 121.83802 | 37003 ft | 573 kts | 102° |
| 2026-05-07 05:17 | 38.33278 | 121.93708 | 37004 ft | 572 kts | 102° |
| 2026-05-07 05:18 | 38.31590 | 122.03610 | 37001 ft | 572 kts | 102° |
| 2026-05-07 05:18 | 38.29896 | 122.13494 | 37000 ft | 571 kts | 103° |
| 2026-05-07 05:19 | 38.28196 | 122.23355 | 36990 ft | 570 kts | 103° |
| 2026-05-07 05:19 | 38.26606 | 122.33244 | 36993 ft | 570 kts | 100° |
| 2026-05-07 05:20 | 38.24652 | 122.42970 | 36990 ft | 567 kts | 115° |
| 2026-05-07 05:20 | 38.22825 | 122.47378 | 36990 ft | 561 kts | 127° |
| 2026-05-07 05:20 | 38.20433 | 122.51252 | 36993 ft | 554 kts | 136° |
| 2026-05-07 05:21 | 38.12424 | 122.61745 | 36983 ft | 551 kts | 141° |
| 2026-05-07 05:22 | 38.06992 | 122.68596 | 36980 ft | 550 kts | 140° |
| 2026-05-07 05:22 | 38.01622 | 122.75512 | 36983 ft | 550 kts | 139° |
| 2026-05-07 05:23 | 37.96277 | 122.82448 | 36978 ft | 549 kts | 139° |
| 2026-05-07 05:23 | 37.90942 | 122.89360 | 36978 ft | 549 kts | 139° |
| 2026-05-07 05:24 | 37.85598 | 122.96260 | 36978 ft | 548 kts | 140° |
| 2026-05-07 05:24 | 37.80258 | 123.03135 | 36977 ft | 547 kts | 140° |
| 2026-05-07 05:25 | 37.74920 | 123.09993 | 36972 ft | 547 kts | 140° |
| 2026-05-07 05:25 | 37.69618 | 123.16787 | 36969 ft | 546 kts | 140° |
| 2026-05-07 05:26 | 37.64247 | 123.23657 | 36973 ft | 546 kts | 140° |
| 2026-05-07 05:26 | 37.58945 | 123.30425 | 36974 ft | 546 kts | 140° |
| 2026-05-07 05:27 | 37.54015 | 123.37762 | 36970 ft | 551 kts | 132° |
| 2026-05-07 05:27 | 37.49387 | 123.45457 | 36971 ft | 551 kts | 131° |
| 2026-05-07 05:28 | 37.44802 | 123.53198 | 36966 ft | 551 kts | 131° |
| 2026-05-07 05:28 | 37.40211 | 123.60910 | 36964 ft | 550 kts | 131° |
| 2026-05-07 05:29 | 37.35608 | 123.68596 | 36962 ft | 550 kts | 131° |
| 2026-05-07 05:29 | 37.31044 | 123.76232 | 36960 ft | 542 kts | 136° |
| 2026-05-07 05:30 | 37.26506 | 123.83751 | 36961 ft | 539 kts | 136° |
| 2026-05-07 05:30 | 37.22299 | 123.90699 | 36956 ft | 539 kts | 136° |
| 2026-05-07 05:31 | 37.18681 | 123.98119 | 36952 ft | 556 kts | 120° |
| 2026-05-07 05:31 | 37.17466 | 124.02766 | 36959 ft | 566 kts | 107° |
| 2026-05-07 05:31 | 37.16960 | 124.07679 | 36766 ft | 572 kts | 94° |
| 2026-05-07 05:31 | 37.16965 | 124.12668 | 36333 ft | 572 kts | 91° |
| 2026-05-07 05:32 | 37.17125 | 124.17655 | 35629 ft | 574 kts | 89° |
| 2026-05-07 05:32 | 37.17356 | 124.22656 | 34864 ft | 576 kts | 89° |
| 2026-05-07 05:32 | 37.17602 | 124.27688 | 34050 ft | 579 kts | 89° |
| 2026-05-07 05:32 | 37.17805 | 124.32740 | 33143 ft | 582 kts | 90° |
| 2026-05-07 05:33 | 37.17963 | 124.37815 | 32271 ft | 583 kts | 90° |
| 2026-05-07 05:33 | 37.18091 | 124.42899 | 31388 ft | 584 kts | 91° |
| 2026-05-07 05:33 | 37.18207 | 124.47992 | 30483 ft | 586 kts | 91° |
| 2026-05-07 05:33 | 37.18314 | 124.53104 | 29457 ft | 588 kts | 91° |
| 2026-05-07 05:34 | 37.18418 | 124.58242 | 28537 ft | 587 kts | 91° |
| 2026-05-07 05:34 | 37.18523 | 124.63324 | 27866 ft | 581 kts | 91° |
| 2026-05-07 05:34 | 37.18630 | 124.68364 | 27200 ft | 575 kts | 91° |
| 2026-05-07 05:34 | 37.18736 | 124.73351 | 26525 ft | 570 kts | 91° |
| 2026-05-07 05:35 | 37.18841 | 124.78298 | 25850 ft | 565 kts | 91° |
| 2026-05-07 05:35 | 37.18942 | 124.83201 | 25183 ft | 560 kts | 91° |
| 2026-05-07 05:35 | 37.19043 | 124.88060 | 24533 ft | 555 kts | 91° |
| 2026-05-07 05:35 | 37.19136 | 124.92878 | 23879 ft | 551 kts | 91° |
| 2026-05-07 05:36 | 37.19227 | 124.97661 | 23173 ft | 546 kts | 91° |
| 2026-05-07 05:36 | 37.19315 | 125.02395 | 22469 ft | 540 kts | 91° |
| 2026-05-07 05:36 | 37.19400 | 125.07068 | 21814 ft | 532 kts | 91° |
| 2026-05-07 05:36 | 37.19483 | 125.11673 | 21169 ft | 525 kts | 91° |
| 2026-05-07 05:37 | 37.19564 | 125.16225 | 20536 ft | 519 kts | 91° |
| 2026-05-07 05:37 | 37.19641 | 125.20715 | 19890 ft | 513 kts | 91° |
| 2026-05-07 05:37 | 37.19716 | 125.25167 | 19249 ft | 507 kts | 91° |
| 2026-05-07 05:37 | 37.19789 | 125.29558 | 18608 ft | 501 kts | 91° |
| 2026-05-07 05:38 | 37.19859 | 125.33907 | 17953 ft | 495 kts | 90° |
| 2026-05-07 05:38 | 37.19927 | 125.38201 | 17247 ft | 489 kts | 90° |
| 2026-05-07 05:38 | 37.19993 | 125.42433 | 16596 ft | 482 kts | 90° |
| 2026-05-07 05:38 | 37.20140 | 125.46605 | 15952 ft | 477 kts | 84° |
| 2026-05-07 05:39 | 37.20975 | 125.50591 | 15334 ft | 470 kts | 66° |
| 2026-05-07 05:39 | 37.22525 | 125.54147 | 14714 ft | 461 kts | 56° |
| 2026-05-07 05:39 | 37.24252 | 125.57508 | 14079 ft | 455 kts | 55° |
| 2026-05-07 05:39 | 37.25954 | 125.60828 | 13455 ft | 449 kts | 55° |
| 2026-05-07 05:40 | 37.27612 | 125.64118 | 12835 ft | 442 kts | 56° |
| 2026-05-07 05:40 | 37.28685 | 125.66273 | 12429 ft | 437 kts | 56° |
| 2026-05-07 05:40 | 37.30276 | 125.69489 | 11856 ft | 430 kts | 56° |
| 2026-05-07 05:40 | 37.32271 | 125.73677 | 11651 ft | 406 kts | 60° |
| 2026-05-07 05:41 | 37.33063 | 125.75776 | 11506 ft | 397 kts | 66° |
| 2026-05-07 05:41 | 37.34139 | 125.78875 | 11309 ft | 371 kts | 62° |
| 2026-05-07 05:41 | 37.35049 | 125.81762 | 11152 ft | 344 kts | 73° |
| 2026-05-07 05:41 | 37.35999 | 125.84464 | 10968 ft | 336 kts | 54° |
| 2026-05-07 05:42 | 37.37349 | 125.86835 | 10776 ft | 333 kts | 50° |
| 2026-05-07 05:42 | 37.38749 | 125.89153 | 10587 ft | 331 kts | 50° |
| 2026-05-07 05:42 | 37.40101 | 125.91401 | 10196 ft | 317 kts | 50° |
| 2026-05-07 05:42 | 37.41437 | 125.93631 | 9275 ft | 322 kts | 50° |
| 2026-05-07 05:43 | 37.42777 | 125.95878 | 8451 ft | 319 kts | 50° |
| 2026-05-07 05:43 | 37.44094 | 125.98096 | 7724 ft | 313 kts | 50° |
| 2026-05-07 05:43 | 37.44970 | 125.99574 | 7240 ft | 310 kts | 50° |
| 2026-05-07 05:43 | 37.45499 | 126.00466 | 6950 ft | 307 kts | 50° |
| 2026-05-07 05:44 | 37.46717 | 126.02521 | 6342 ft | 301 kts | 50° |
| 2026-05-07 05:44 | 37.47951 | 126.04604 | 5806 ft | 292 kts | 50° |
| 2026-05-07 05:44 | 37.49159 | 126.06642 | 5458 ft | 291 kts | 50° |
| 2026-05-07 05:44 | 37.50365 | 126.08678 | 5254 ft | 289 kts | 50° |
| 2026-05-07 05:45 | 37.51559 | 126.10693 | 4993 ft | 286 kts | 50° |
| 2026-05-07 05:45 | 37.52746 | 126.12702 | 4527 ft | 287 kts | 51° |
| 2026-05-07 05:45 | 37.53931 | 126.14711 | 4189 ft | 284 kts | 51° |
| 2026-05-07 05:45 | 37.55105 | 126.16701 | 3858 ft | 281 kts | 51° |
| 2026-05-07 05:46 | 37.56261 | 126.18662 | 3568 ft | 277 kts | 51° |
| 2026-05-07 05:46 | 37.57407 | 126.20610 | 3298 ft | 277 kts | 51° |
| 2026-05-07 05:46 | 37.58536 | 126.22588 | 3063 ft | 278 kts | 53° |
| 2026-05-07 05:46 | 37.59639 | 126.24552 | 2997 ft | 271 kts | 53° |
| 2026-05-07 05:47 | 37.60454 | 126.26642 | 2903 ft | 264 kts | 78° |
| 2026-05-07 05:47 | 37.60326 | 126.28869 | 2818 ft | 252 kts | 114° |
| 2026-05-07 05:47 | 37.59314 | 126.30564 | 2659 ft | 237 kts | 148° |
| 2026-05-07 05:47 | 37.57945 | 126.31615 | 2550 ft | 227 kts | 154° |
| 2026-05-07 05:48 | 37.56609 | 126.32639 | 2406 ft | 222 kts | 149° |
| 2026-05-07 05:48 | 37.55376 | 126.33748 | 2159 ft | 213 kts | 147° |
| 2026-05-07 05:48 | 37.54199 | 126.34821 | 1893 ft | 204 kts | 150° |
| 2026-05-07 05:48 | 37.53058 | 126.35826 | 1590 ft | 195 kts | 150° |
| 2026-05-07 05:49 | 37.52010 | 126.36763 | 1351 ft | 175 kts | 150° |
| 2026-05-07 05:49 | 37.51074 | 126.37600 | 1112 ft | 156 kts | 151° |
| 2026-05-07 05:49 | 37.50237 | 126.38344 | 896 ft | 141 kts | 150° |
| 2026-05-07 05:49 | 37.49456 | 126.39039 | 704 ft | 136 kts | 150° |
| 2026-05-07 05:50 | 37.48697 | 126.39752 | 533 ft | 136 kts | 150° |
| 2026-05-07 05:50 | 37.47935 | 126.40418 | 326 ft | 130 kts | 151° |
| 2026-05-07 05:50 | 37.47197 | 126.41079 | 157 ft | 130 kts | 152° |
| 2026-05-07 05:50 | 37.46453 | 126.41731 | 41 ft | 127 kts | 150° |
| 2026-05-07 05:51 | 37.45865 | 126.42245 | 39 ft | 77 kts | 144° |
| 2026-05-07 05:51 | 37.45546 | 126.42532 | 39 ft | 44 kts | 144° |
| 2026-05-07 05:51 | 37.45365 | 126.42726 | 39 ft | 27 kts | 123° |
| 2026-05-07 05:51 | 37.45291 | 126.42923 | 39 ft | 24 kts | 114° |
| 2026-05-07 05:52 | 37.45200 | 126.43100 | 39 ft | 24 kts | 138° |
| 2026-05-07 05:52 | 37.45090 | 126.43209 | 39 ft | 11 kts | 133° |
| 2026-05-07 05:52 | 37.45100 | 126.43298 | 38 ft | 12 kts | 55° |
| 2026-05-07 05:52 | 37.45156 | 126.43395 | 39 ft | 14 kts | 54° |
| 2026-05-07 05:53 | 37.45209 | 126.43488 | 39 ft | 10 kts | 54° |
| 2026-05-07 05:53 | 37.45236 | 126.43535 | 39 ft | 6 kts | 54° |
| 2026-05-07 05:53 | 37.45242 | 126.43546 | 39 ft | 0 kts | 54° |
| 2026-05-07 05:53 | 37.45247 | 126.43555 | 39 ft | 4 kts | 53° |
| 2026-05-07 05:54 | 37.45293 | 126.43581 | 39 ft | 9 kts | 359° |
| 2026-05-07 05:54 | 37.45344 | 126.43548 | 39 ft | 8 kts | 327° |
| 2026-05-07 05:54 | 37.45393 | 126.43507 | 39 ft | 8 kts | 324° |
| 2026-05-07 05:54 | 37.45440 | 126.43464 | 39 ft | 8 kts | 324° |
| 2026-05-07 05:55 | 37.45489 | 126.43420 | 39 ft | 9 kts | 324° |
| 2026-05-07 05:55 | 37.45537 | 126.43376 | 39 ft | 9 kts | 324° |
| 2026-05-07 05:55 | 37.45588 | 126.43331 | 39 ft | 9 kts | 325° |
| 2026-05-07 05:55 | 37.45640 | 126.43287 | 39 ft | 9 kts | 326° |
| 2026-05-07 05:56 | 37.45692 | 126.43241 | 38 ft | 9 kts | 324° |
| 2026-05-07 05:56 | 37.45745 | 126.43193 | 39 ft | 9 kts | 324° |
| 2026-05-07 05:56 | 37.45803 | 126.43185 | 39 ft | 8 kts | 25° |
| 2026-05-07 05:56 | 37.45837 | 126.43234 | 39 ft | 8 kts | 55° |
| 2026-05-07 05:57 | 37.45868 | 126.43289 | 39 ft | 8 kts | 55° |
| 2026-05-07 05:57 | 37.45899 | 126.43341 | 39 ft | 7 kts | 46° |
| 2026-05-07 05:57 | 37.45951 | 126.43352 | 39 ft | 7 kts | 338° |
| 2026-05-07 05:57 | 37.45987 | 126.43315 | 39 ft | 6 kts | 321° |
| 2026-05-07 05:58 | 37.46019 | 126.43286 | 39 ft | 6 kts | 324° |
| 2026-05-07 05:58 | 37.46054 | 126.43256 | 38 ft | 7 kts | 325° |
| 2026-05-07 05:58 | 37.46100 | 126.43216 | 39 ft | 9 kts | 325° |
| 2026-05-07 05:58 | 37.46154 | 126.43169 | 38 ft | 9 kts | 326° |
| 2026-05-07 05:59 | 37.46206 | 126.43132 | 39 ft | 9 kts | 334° |
| 2026-05-07 05:59 | 37.46259 | 126.43101 | 39 ft | 8 kts | 334° |
| 2026-05-07 05:59 | 37.46312 | 126.43070 | 39 ft | 8 kts | 336° |
| 2026-05-07 05:59 | 37.46366 | 126.43041 | 39 ft | 8 kts | 336° |
| 2026-05-07 06:00 | 37.46417 | 126.43012 | 39 ft | 8 kts | 336° |
| 2026-05-07 06:00 | 37.46469 | 126.42983 | 39 ft | 8 kts | 335° |
| 2026-05-07 06:00 | 37.46517 | 126.42944 | 39 ft | 8 kts | 323° |
| 2026-05-07 06:00 | 37.46555 | 126.42926 | 39 ft | 3 kts | 13° |
| 2026-05-07 06:01 | 37.46564 | 126.42933 | 39 ft | 0 kts | 30° |
| 2026-05-07 06:01 | 37.46574 | 126.42943 | 39 ft | 3 kts | 39° |
| 2026-05-07 06:01 | 37.46581 | 126.42953 | 39 ft | 0 kts | 46° |
| 2026-05-07 06:01 | 37.46586 | 126.42959 | 39 ft | 1 kts | 48° |
| 2026-05-07 06:02 | 37.46602 | 126.42982 | 39 ft | 4 kts | 50° |
| 2026-05-07 06:02 | 37.46615 | 126.43002 | 39 ft | 2 kts | 50° |
| 2026-05-07 06:02 | 37.46617 | 126.43005 | 39 ft | 0 kts | 50° |